sensor_id;sensor_type;location;lat;lon;timestamp;P1;durP1;ratioP1;P2;durP2;ratioP2
62707;SDS011;48769;51.624;5.886;2023-07-29T00:01:17;5.63;;;5.03;;
62707;SDS011;48769;51.624;5.886;2023-07-29T00:03:43;6.03;;;4.70;;
62707;SDS011;48769;51.624;5.886;2023-07-29T00:06:09;10.25;;;5.30;;
62707;SDS011;48769;51.624;5.886;2023-07-29T00:08:35;7.75;;;5.13;;
62707;SDS011;48769;51.624;5.886;2023-07-29T00:11:03;6.57;;;5.03;;
62707;SDS011;48769;51.624;5.886;2023-07-29T00:13:28;7.03;;;5.28;;
62707;SDS011;48769;51.624;5.886;2023-07-29T00:15:54;6.47;;;5.68;;
62707;SDS011;48769;51.624;5.886;2023-07-29T00:18:20;7.85;;;5.53;;
62707;SDS011;48769;51.624;5.886;2023-07-29T00:20:46;6.70;;;5.13;;
62707;SDS011;48769;51.624;5.886;2023-07-29T00:23:11;10.10;;;5.75;;
62707;SDS011;48769;51.624;5.886;2023-07-29T00:25:37;6.68;;;5.25;;
62707;SDS011;48769;51.624;5.886;2023-07-29T00:28:02;5.43;;;4.93;;
62707;SDS011;48769;51.624;5.886;2023-07-29T00:30:27;8.57;;;4.88;;
62707;SDS011;48769;51.624;5.886;2023-07-29T00:32:52;6.95;;;4.97;;
62707;SDS011;48769;51.624;5.886;2023-07-29T00:35:18;5.47;;;4.97;;
62707;SDS011;48769;51.624;5.886;2023-07-29T00:37:43;7.93;;;5.97;;
62707;SDS011;48769;51.624;5.886;2023-07-29T00:40:15;11.75;;;6.22;;
62707;SDS011;48769;51.624;5.886;2023-07-29T00:42:45;6.07;;;5.43;;
62707;SDS011;48769;51.624;5.886;2023-07-29T00:45:10;8.70;;;5.85;;
62707;SDS011;48769;51.624;5.886;2023-07-29T00:47:36;6.57;;;5.97;;
62707;SDS011;48769;51.624;5.886;2023-07-29T00:50:03;7.43;;;6.30;;
62707;SDS011;48769;51.624;5.886;2023-07-29T00:52:29;8.38;;;6.40;;
62707;SDS011;48769;51.624;5.886;2023-07-29T00:54:54;9.93;;;7.10;;
62707;SDS011;48769;51.624;5.886;2023-07-29T00:57:19;10.13;;;6.20;;
62707;SDS011;48769;51.624;5.886;2023-07-29T00:59:46;7.28;;;6.18;;
62707;SDS011;48769;51.624;5.886;2023-07-29T01:02:12;8.85;;;6.38;;
62707;SDS011;48769;51.624;5.886;2023-07-29T01:04:37;6.50;;;5.90;;
62707;SDS011;48769;51.624;5.886;2023-07-29T01:07:14;14.90;;;6.30;;
62707;SDS011;48769;51.624;5.886;2023-07-29T01:09:53;7.55;;;6.20;;
62707;SDS011;48769;51.624;5.886;2023-07-29T01:15:01;8.23;;;6.53;;
62707;SDS011;48769;51.624;5.886;2023-07-29T01:17:54;8.43;;;6.90;;
62707;SDS011;48769;51.624;5.886;2023-07-29T01:20:24;14.55;;;7.38;;
62707;SDS011;48769;51.624;5.886;2023-07-29T01:22:50;8.23;;;7.40;;
62707;SDS011;48769;51.624;5.886;2023-07-29T01:25:16;7.43;;;6.60;;
62707;SDS011;48769;51.624;5.886;2023-07-29T01:27:42;16.40;;;6.55;;
62707;SDS011;48769;51.624;5.886;2023-07-29T01:30:10;8.25;;;6.45;;
62707;SDS011;48769;51.624;5.886;2023-07-29T01:32:38;9.63;;;7.65;;
62707;SDS011;48769;51.624;5.886;2023-07-29T01:37:34;8.37;;;6.87;;
62707;SDS011;48769;51.624;5.886;2023-07-29T01:40:02;10.75;;;6.93;;
62707;SDS011;48769;51.624;5.886;2023-07-29T01:42:29;8.10;;;6.88;;
62707;SDS011;48769;51.624;5.886;2023-07-29T01:44:55;9.80;;;7.68;;
62707;SDS011;48769;51.624;5.886;2023-07-29T01:47:21;8.45;;;7.40;;
62707;SDS011;48769;51.624;5.886;2023-07-29T01:49:47;8.25;;;7.10;;
62707;SDS011;48769;51.624;5.886;2023-07-29T01:52:13;9.00;;;7.20;;
62707;SDS011;48769;51.624;5.886;2023-07-29T01:54:38;7.97;;;6.53;;
62707;SDS011;48769;51.624;5.886;2023-07-29T01:57:04;10.00;;;7.07;;
62707;SDS011;48769;51.624;5.886;2023-07-29T01:59:29;9.07;;;6.60;;
62707;SDS011;48769;51.624;5.886;2023-07-29T02:01:54;11.93;;;7.40;;
62707;SDS011;48769;51.624;5.886;2023-07-29T02:04:19;8.65;;;7.07;;
62707;SDS011;48769;51.624;5.886;2023-07-29T02:06:45;7.72;;;6.93;;
62707;SDS011;48769;51.624;5.886;2023-07-29T02:09:10;7.40;;;6.70;;
62707;SDS011;48769;51.624;5.886;2023-07-29T02:11:35;9.15;;;7.20;;
62707;SDS011;48769;51.624;5.886;2023-07-29T02:14:01;9.40;;;7.93;;
62707;SDS011;48769;51.624;5.886;2023-07-29T02:16:26;9.13;;;7.07;;
62707;SDS011;48769;51.624;5.886;2023-07-29T02:18:51;10.13;;;7.32;;
62707;SDS011;48769;51.624;5.886;2023-07-29T02:21:17;9.43;;;7.57;;
62707;SDS011;48769;51.624;5.886;2023-07-29T02:23:42;10.98;;;7.85;;
62707;SDS011;48769;51.624;5.886;2023-07-29T02:26:07;11.23;;;7.75;;
62707;SDS011;48769;51.624;5.886;2023-07-29T02:28:33;8.65;;;7.80;;
62707;SDS011;48769;51.624;5.886;2023-07-29T02:33:40;11.25;;;7.50;;
62707;SDS011;48769;51.624;5.886;2023-07-29T02:36:06;10.30;;;7.38;;
62707;SDS011;48769;51.624;5.886;2023-07-29T02:38:31;8.43;;;7.68;;
62707;SDS011;48769;51.624;5.886;2023-07-29T02:40:57;9.98;;;7.32;;
62707;SDS011;48769;51.624;5.886;2023-07-29T02:43:22;9.20;;;7.78;;
62707;SDS011;48769;51.624;5.886;2023-07-29T02:45:47;9.95;;;8.70;;
62707;SDS011;48769;51.624;5.886;2023-07-29T02:48:13;10.93;;;8.88;;
62707;SDS011;48769;51.624;5.886;2023-07-29T02:50:38;10.23;;;9.23;;
62707;SDS011;48769;51.624;5.886;2023-07-29T02:53:03;9.45;;;8.48;;
62707;SDS011;48769;51.624;5.886;2023-07-29T02:55:29;10.80;;;9.57;;
62707;SDS011;48769;51.624;5.886;2023-07-29T02:57:54;12.27;;;10.00;;
62707;SDS011;48769;51.624;5.886;2023-07-29T03:00:19;11.50;;;9.70;;
62707;SDS011;48769;51.624;5.886;2023-07-29T03:02:45;13.10;;;10.02;;
62707;SDS011;48769;51.624;5.886;2023-07-29T03:05:10;13.73;;;11.00;;
62707;SDS011;48769;51.624;5.886;2023-07-29T03:07:36;18.95;;;11.43;;
62707;SDS011;48769;51.624;5.886;2023-07-29T03:10:01;13.52;;;11.65;;
62707;SDS011;48769;51.624;5.886;2023-07-29T03:12:27;14.73;;;11.48;;
62707;SDS011;48769;51.624;5.886;2023-07-29T03:14:52;12.93;;;9.45;;
62707;SDS011;48769;51.624;5.886;2023-07-29T03:17:17;12.20;;;10.02;;
62707;SDS011;48769;51.624;5.886;2023-07-29T03:19:43;13.55;;;10.13;;
62707;SDS011;48769;51.624;5.886;2023-07-29T03:22:08;13.25;;;10.02;;
62707;SDS011;48769;51.624;5.886;2023-07-29T03:24:33;13.23;;;10.50;;
62707;SDS011;48769;51.624;5.886;2023-07-29T03:26:59;14.43;;;10.73;;
62707;SDS011;48769;51.624;5.886;2023-07-29T03:29:24;12.57;;;10.23;;
62707;SDS011;48769;51.624;5.886;2023-07-29T03:31:49;12.77;;;10.77;;
62707;SDS011;48769;51.624;5.886;2023-07-29T03:34:15;14.15;;;11.43;;
62707;SDS011;48769;51.624;5.886;2023-07-29T03:36:40;12.68;;;10.73;;
62707;SDS011;48769;51.624;5.886;2023-07-29T03:39:06;12.95;;;10.80;;
62707;SDS011;48769;51.624;5.886;2023-07-29T03:41:32;13.68;;;10.95;;
62707;SDS011;48769;51.624;5.886;2023-07-29T03:43:58;16.40;;;11.07;;
62707;SDS011;48769;51.624;5.886;2023-07-29T03:46:24;13.35;;;11.32;;
62707;SDS011;48769;51.624;5.886;2023-07-29T03:48:49;13.00;;;11.35;;
62707;SDS011;48769;51.624;5.886;2023-07-29T03:51:15;14.07;;;10.95;;
62707;SDS011;48769;51.624;5.886;2023-07-29T03:53:40;13.48;;;10.88;;
62707;SDS011;48769;51.624;5.886;2023-07-29T03:56:06;14.45;;;10.52;;
62707;SDS011;48769;51.624;5.886;2023-07-29T03:58:32;13.85;;;11.30;;
62707;SDS011;48769;51.624;5.886;2023-07-29T04:00:57;15.23;;;11.90;;
62707;SDS011;48769;51.624;5.886;2023-07-29T04:03:23;13.52;;;11.55;;
62707;SDS011;48769;51.624;5.886;2023-07-29T04:05:48;14.68;;;11.50;;
62707;SDS011;48769;51.624;5.886;2023-07-29T04:08:13;17.00;;;11.80;;
62707;SDS011;48769;51.624;5.886;2023-07-29T04:10:39;18.98;;;11.13;;
62707;SDS011;48769;51.624;5.886;2023-07-29T04:13:04;12.05;;;9.80;;
62707;SDS011;48769;51.624;5.886;2023-07-29T04:15:30;14.90;;;10.18;;
62707;SDS011;48769;51.624;5.886;2023-07-29T04:17:55;13.55;;;9.38;;
62707;SDS011;48769;51.624;5.886;2023-07-29T04:20:20;12.00;;;10.02;;
62707;SDS011;48769;51.624;5.886;2023-07-29T04:22:46;16.25;;;10.18;;
62707;SDS011;48769;51.624;5.886;2023-07-29T04:25:11;10.25;;;8.90;;
62707;SDS011;48769;51.624;5.886;2023-07-29T04:27:38;11.40;;;9.27;;
62707;SDS011;48769;51.624;5.886;2023-07-29T04:30:03;11.98;;;9.13;;
62707;SDS011;48769;51.624;5.886;2023-07-29T04:32:29;12.85;;;9.27;;
62707;SDS011;48769;51.624;5.886;2023-07-29T04:34:54;10.93;;;9.02;;
62707;SDS011;48769;51.624;5.886;2023-07-29T04:37:19;12.75;;;8.82;;
62707;SDS011;48769;51.624;5.886;2023-07-29T04:39:45;10.10;;;8.07;;
62707;SDS011;48769;51.624;5.886;2023-07-29T04:42:11;10.18;;;8.18;;
62707;SDS011;48769;51.624;5.886;2023-07-29T04:44:37;9.82;;;7.43;;
62707;SDS011;48769;51.624;5.886;2023-07-29T04:47:02;9.18;;;7.20;;
62707;SDS011;48769;51.624;5.886;2023-07-29T04:49:27;10.65;;;7.20;;
62707;SDS011;48769;51.624;5.886;2023-07-29T04:51:53;8.52;;;7.30;;
62707;SDS011;48769;51.624;5.886;2023-07-29T04:54:18;10.65;;;6.93;;
62707;SDS011;48769;51.624;5.886;2023-07-29T04:56:45;9.18;;;6.20;;
62707;SDS011;48769;51.624;5.886;2023-07-29T04:59:11;9.55;;;6.13;;
62707;SDS011;48769;51.624;5.886;2023-07-29T05:01:37;7.47;;;6.47;;
62707;SDS011;48769;51.624;5.886;2023-07-29T05:04:03;10.25;;;6.55;;
62707;SDS011;48769;51.624;5.886;2023-07-29T05:06:28;6.97;;;5.90;;
62707;SDS011;48769;51.624;5.886;2023-07-29T05:08:54;8.93;;;5.97;;
62707;SDS011;48769;51.624;5.886;2023-07-29T05:11:19;8.98;;;6.45;;
62707;SDS011;48769;51.624;5.886;2023-07-29T05:13:45;9.57;;;6.15;;
62707;SDS011;48769;51.624;5.886;2023-07-29T05:16:10;13.40;;;5.40;;
62707;SDS011;48769;51.624;5.886;2023-07-29T05:18:35;6.97;;;5.97;;
62707;SDS011;48769;51.624;5.886;2023-07-29T05:21:00;8.02;;;6.07;;
62707;SDS011;48769;51.624;5.886;2023-07-29T05:23:26;10.07;;;5.50;;
62707;SDS011;48769;51.624;5.886;2023-07-29T05:25:51;7.63;;;6.38;;
62707;SDS011;48769;51.624;5.886;2023-07-29T05:28:16;7.05;;;5.60;;
62707;SDS011;48769;51.624;5.886;2023-07-29T05:30:43;11.80;;;5.65;;
62707;SDS011;48769;51.624;5.886;2023-07-29T05:33:09;7.05;;;6.13;;
62707;SDS011;48769;51.624;5.886;2023-07-29T05:35:34;8.43;;;6.13;;
62707;SDS011;48769;51.624;5.886;2023-07-29T05:37:59;8.52;;;5.97;;
62707;SDS011;48769;51.624;5.886;2023-07-29T05:40:25;7.20;;;5.97;;
62707;SDS011;48769;51.624;5.886;2023-07-29T05:42:50;7.15;;;5.80;;
62707;SDS011;48769;51.624;5.886;2023-07-29T05:45:15;8.77;;;5.93;;
62707;SDS011;48769;51.624;5.886;2023-07-29T05:47:41;10.00;;;5.53;;
62707;SDS011;48769;51.624;5.886;2023-07-29T05:50:06;7.63;;;5.63;;
62707;SDS011;48769;51.624;5.886;2023-07-29T05:52:32;11.02;;;6.20;;
62707;SDS011;48769;51.624;5.886;2023-07-29T05:54:58;7.60;;;5.82;;
62707;SDS011;48769;51.624;5.886;2023-07-29T05:57:24;7.00;;;5.82;;
62707;SDS011;48769;51.624;5.886;2023-07-29T05:59:49;10.98;;;5.32;;
62707;SDS011;48769;51.624;5.886;2023-07-29T06:02:14;6.25;;;5.15;;
62707;SDS011;48769;51.624;5.886;2023-07-29T06:04:40;7.68;;;4.72;;
62707;SDS011;48769;51.624;5.886;2023-07-29T06:07:05;7.72;;;4.80;;
62707;SDS011;48769;51.624;5.886;2023-07-29T06:09:31;5.57;;;4.80;;
62707;SDS011;48769;51.624;5.886;2023-07-29T06:11:56;6.68;;;4.55;;
62707;SDS011;48769;51.624;5.886;2023-07-29T06:14:21;5.28;;;4.68;;
62707;SDS011;48769;51.624;5.886;2023-07-29T06:16:47;4.85;;;4.32;;
62707;SDS011;48769;51.624;5.886;2023-07-29T06:19:12;6.65;;;4.00;;
62707;SDS011;48769;51.624;5.886;2023-07-29T06:21:38;6.20;;;4.43;;
62707;SDS011;48769;51.624;5.886;2023-07-29T06:24:03;5.05;;;3.85;;
62707;SDS011;48769;51.624;5.886;2023-07-29T06:26:29;5.95;;;4.35;;
62707;SDS011;48769;51.624;5.886;2023-07-29T06:28:54;4.60;;;3.70;;
62707;SDS011;48769;51.624;5.886;2023-07-29T06:31:19;4.85;;;3.90;;
62707;SDS011;48769;51.624;5.886;2023-07-29T06:33:45;4.78;;;3.80;;
62707;SDS011;48769;51.624;5.886;2023-07-29T06:36:11;4.80;;;4.18;;
62707;SDS011;48769;51.624;5.886;2023-07-29T06:38:37;6.07;;;4.28;;
62707;SDS011;48769;51.624;5.886;2023-07-29T06:41:03;5.15;;;3.67;;
62707;SDS011;48769;51.624;5.886;2023-07-29T06:43:29;4.20;;;3.80;;
62707;SDS011;48769;51.624;5.886;2023-07-29T06:45:54;7.05;;;4.10;;
62707;SDS011;48769;51.624;5.886;2023-07-29T06:48:20;7.93;;;4.22;;
62707;SDS011;48769;51.624;5.886;2023-07-29T06:50:46;6.07;;;3.80;;
62707;SDS011;48769;51.624;5.886;2023-07-29T06:53:11;5.53;;;3.60;;
62707;SDS011;48769;51.624;5.886;2023-07-29T06:55:36;5.00;;;4.28;;
62707;SDS011;48769;51.624;5.886;2023-07-29T06:58:05;4.55;;;3.72;;
62707;SDS011;48769;51.624;5.886;2023-07-29T07:00:31;9.05;;;4.30;;
62707;SDS011;48769;51.624;5.886;2023-07-29T07:02:56;10.38;;;4.65;;
62707;SDS011;48769;51.624;5.886;2023-07-29T07:05:21;7.28;;;4.32;;
62707;SDS011;48769;51.624;5.886;2023-07-29T07:07:47;6.72;;;4.35;;
62707;SDS011;48769;51.624;5.886;2023-07-29T07:10:12;4.72;;;3.78;;
62707;SDS011;48769;51.624;5.886;2023-07-29T07:12:42;8.73;;;4.80;;
62707;SDS011;48769;51.624;5.886;2023-07-29T07:15:07;6.22;;;4.82;;
62707;SDS011;48769;51.624;5.886;2023-07-29T07:17:33;7.57;;;4.70;;
62707;SDS011;48769;51.624;5.886;2023-07-29T07:19:58;6.13;;;4.68;;
62707;SDS011;48769;51.624;5.886;2023-07-29T07:22:23;6.97;;;4.68;;
62707;SDS011;48769;51.624;5.886;2023-07-29T07:24:49;7.45;;;5.07;;
62707;SDS011;48769;51.624;5.886;2023-07-29T07:27:14;8.07;;;4.85;;
62707;SDS011;48769;51.624;5.886;2023-07-29T07:29:40;6.15;;;4.63;;
62707;SDS011;48769;51.624;5.886;2023-07-29T07:32:05;6.50;;;4.55;;
62707;SDS011;48769;51.624;5.886;2023-07-29T07:34:30;8.02;;;4.70;;
62707;SDS011;48769;51.624;5.886;2023-07-29T07:36:58;7.28;;;4.43;;
62707;SDS011;48769;51.624;5.886;2023-07-29T07:39:23;5.07;;;4.05;;
62707;SDS011;48769;51.624;5.886;2023-07-29T07:41:49;5.57;;;3.97;;
62707;SDS011;48769;51.624;5.886;2023-07-29T07:44:14;7.07;;;4.45;;
62707;SDS011;48769;51.624;5.886;2023-07-29T07:46:42;5.35;;;4.25;;
62707;SDS011;48769;51.624;5.886;2023-07-29T07:49:08;6.65;;;4.85;;
62707;SDS011;48769;51.624;5.886;2023-07-29T07:51:33;5.50;;;4.20;;
62707;SDS011;48769;51.624;5.886;2023-07-29T07:53:58;4.32;;;3.60;;
62707;SDS011;48769;51.624;5.886;2023-07-29T07:56:23;5.68;;;4.78;;
62707;SDS011;48769;51.624;5.886;2023-07-29T07:58:49;6.88;;;4.10;;
62707;SDS011;48769;51.624;5.886;2023-07-29T08:01:14;7.35;;;3.88;;
62707;SDS011;48769;51.624;5.886;2023-07-29T08:03:39;4.70;;;3.67;;
62707;SDS011;48769;51.624;5.886;2023-07-29T08:06:05;6.30;;;3.28;;
62707;SDS011;48769;51.624;5.886;2023-07-29T08:08:30;6.07;;;2.88;;
62707;SDS011;48769;51.624;5.886;2023-07-29T08:10:58;3.83;;;3.35;;
62707;SDS011;48769;51.624;5.886;2023-07-29T08:13:24;5.07;;;2.97;;
62707;SDS011;48769;51.624;5.886;2023-07-29T08:15:50;3.75;;;2.90;;
62707;SDS011;48769;51.624;5.886;2023-07-29T08:18:17;3.28;;;2.90;;
62707;SDS011;48769;51.624;5.886;2023-07-29T08:20:52;4.28;;;2.85;;
62707;SDS011;48769;51.624;5.886;2023-07-29T08:23:27;4.85;;;2.88;;
62707;SDS011;48769;51.624;5.886;2023-07-29T08:25:53;7.53;;;3.10;;
62707;SDS011;48769;51.624;5.886;2023-07-29T08:28:21;5.00;;;3.58;;
62707;SDS011;48769;51.624;5.886;2023-07-29T08:30:47;3.30;;;2.95;;
62707;SDS011;48769;51.624;5.886;2023-07-29T08:33:12;5.22;;;3.28;;
62707;SDS011;48769;51.624;5.886;2023-07-29T08:35:38;4.10;;;3.47;;
62707;SDS011;48769;51.624;5.886;2023-07-29T08:38:03;5.22;;;3.40;;
62707;SDS011;48769;51.624;5.886;2023-07-29T08:40:29;4.60;;;3.38;;
62707;SDS011;48769;51.624;5.886;2023-07-29T08:42:56;4.32;;;3.47;;
62707;SDS011;48769;51.624;5.886;2023-07-29T08:45:26;5.68;;;3.25;;
62707;SDS011;48769;51.624;5.886;2023-07-29T08:47:52;5.20;;;3.53;;
62707;SDS011;48769;51.624;5.886;2023-07-29T08:50:22;5.05;;;3.40;;
62707;SDS011;48769;51.624;5.886;2023-07-29T08:52:49;4.22;;;2.88;;
62707;SDS011;48769;51.624;5.886;2023-07-29T08:55:17;4.75;;;3.25;;
62707;SDS011;48769;51.624;5.886;2023-07-29T08:57:43;3.50;;;3.20;;
62707;SDS011;48769;51.624;5.886;2023-07-29T09:00:10;3.58;;;2.80;;
62707;SDS011;48769;51.624;5.886;2023-07-29T09:02:36;3.53;;;3.10;;
62707;SDS011;48769;51.624;5.886;2023-07-29T09:05:02;5.32;;;2.88;;
62707;SDS011;48769;51.624;5.886;2023-07-29T09:07:27;4.28;;;2.55;;
62707;SDS011;48769;51.624;5.886;2023-07-29T09:09:53;5.25;;;3.00;;
62707;SDS011;48769;51.624;5.886;2023-07-29T09:12:19;3.75;;;2.00;;
62707;SDS011;48769;51.624;5.886;2023-07-29T09:14:45;2.60;;;2.20;;
62707;SDS011;48769;51.624;5.886;2023-07-29T09:17:10;4.90;;;2.40;;
62707;SDS011;48769;51.624;5.886;2023-07-29T09:19:35;2.75;;;1.95;;
62707;SDS011;48769;51.624;5.886;2023-07-29T09:22:01;2.20;;;1.55;;
62707;SDS011;48769;51.624;5.886;2023-07-29T09:24:26;3.95;;;2.20;;
62707;SDS011;48769;51.624;5.886;2023-07-29T09:26:54;2.75;;;2.13;;
62707;SDS011;48769;51.624;5.886;2023-07-29T09:29:24;3.10;;;2.00;;
62707;SDS011;48769;51.624;5.886;2023-07-29T09:31:53;4.68;;;1.98;;
62707;SDS011;48769;51.624;5.886;2023-07-29T09:34:18;3.78;;;1.95;;
62707;SDS011;48769;51.624;5.886;2023-07-29T09:36:43;2.53;;;1.70;;
62707;SDS011;48769;51.624;5.886;2023-07-29T09:39:12;4.43;;;2.13;;
62707;SDS011;48769;51.624;5.886;2023-07-29T09:41:40;3.33;;;1.88;;
62707;SDS011;48769;51.624;5.886;2023-07-29T09:44:06;2.58;;;1.80;;
62707;SDS011;48769;51.624;5.886;2023-07-29T09:46:35;2.30;;;1.67;;
62707;SDS011;48769;51.624;5.886;2023-07-29T09:49:05;1.45;;;1.35;;
62707;SDS011;48769;51.624;5.886;2023-07-29T09:51:36;6.47;;;1.92;;
62707;SDS011;48769;51.624;5.886;2023-07-29T09:54:04;2.47;;;1.60;;
62707;SDS011;48769;51.624;5.886;2023-07-29T09:56:29;2.58;;;1.80;;
62707;SDS011;48769;51.624;5.886;2023-07-29T09:58:55;2.08;;;1.73;;
62707;SDS011;48769;51.624;5.886;2023-07-29T10:01:22;3.92;;;2.05;;
62707;SDS011;48769;51.624;5.886;2023-07-29T10:03:48;3.58;;;1.67;;
62707;SDS011;48769;51.624;5.886;2023-07-29T10:06:14;2.70;;;1.50;;
62707;SDS011;48769;51.624;5.886;2023-07-29T10:08:40;1.90;;;1.38;;
62707;SDS011;48769;51.624;5.886;2023-07-29T10:11:06;2.35;;;1.50;;
62707;SDS011;48769;51.624;5.886;2023-07-29T10:13:32;2.25;;;1.30;;
62707;SDS011;48769;51.624;5.886;2023-07-29T10:15:58;3.25;;;1.50;;
62707;SDS011;48769;51.624;5.886;2023-07-29T10:18:27;3.60;;;1.92;;
62707;SDS011;48769;51.624;5.886;2023-07-29T10:20:53;3.80;;;1.90;;
62707;SDS011;48769;51.624;5.886;2023-07-29T10:23:21;2.47;;;1.30;;
62707;SDS011;48769;51.624;5.886;2023-07-29T10:25:50;2.50;;;1.90;;
62707;SDS011;48769;51.624;5.886;2023-07-29T10:28:23;3.30;;;1.92;;
62707;SDS011;48769;51.624;5.886;2023-07-29T10:30:50;2.03;;;1.83;;
62707;SDS011;48769;51.624;5.886;2023-07-29T10:33:17;1.80;;;1.65;;
62707;SDS011;48769;51.624;5.886;2023-07-29T10:35:42;5.18;;;1.88;;
62707;SDS011;48769;51.624;5.886;2023-07-29T10:38:08;2.85;;;1.55;;
62707;SDS011;48769;51.624;5.886;2023-07-29T10:40:52;3.28;;;1.55;;
62707;SDS011;48769;51.624;5.886;2023-07-29T10:43:36;3.17;;;2.13;;
62707;SDS011;48769;51.624;5.886;2023-07-29T10:46:38;3.47;;;1.60;;
62707;SDS011;48769;51.624;5.886;2023-07-29T10:48:59;2.05;;;1.63;;
62707;SDS011;48769;51.624;5.886;2023-07-29T10:51:37;2.20;;;1.88;;
62707;SDS011;48769;51.624;5.886;2023-07-29T10:54:03;2.05;;;1.85;;
62707;SDS011;48769;51.624;5.886;2023-07-29T10:56:35;4.82;;;1.85;;
62707;SDS011;48769;51.624;5.886;2023-07-29T11:01:43;3.67;;;1.90;;
62707;SDS011;48769;51.624;5.886;2023-07-29T11:09:40;3.20;;;2.22;;
62707;SDS011;48769;51.624;5.886;2023-07-29T11:15:06;3.35;;;1.92;;
62707;SDS011;48769;51.624;5.886;2023-07-29T11:17:47;3.30;;;2.22;;
62707;SDS011;48769;51.624;5.886;2023-07-29T11:20:13;3.55;;;1.98;;
62707;SDS011;48769;51.624;5.886;2023-07-29T11:22:40;2.45;;;1.92;;
62707;SDS011;48769;51.624;5.886;2023-07-29T11:25:10;4.65;;;1.90;;
62707;SDS011;48769;51.624;5.886;2023-07-29T11:27:37;2.55;;;2.17;;
62707;SDS011;48769;51.624;5.886;2023-07-29T11:30:09;1.90;;;1.73;;
62707;SDS011;48769;51.624;5.886;2023-07-29T11:32:36;2.75;;;1.85;;
62707;SDS011;48769;51.624;5.886;2023-07-29T11:35:03;4.30;;;1.80;;
62707;SDS011;48769;51.624;5.886;2023-07-29T11:37:29;2.67;;;2.00;;
62707;SDS011;48769;51.624;5.886;2023-07-29T11:39:55;2.03;;;1.90;;
62707;SDS011;48769;51.624;5.886;2023-07-29T11:42:20;4.07;;;1.92;;
62707;SDS011;48769;51.624;5.886;2023-07-29T11:44:46;2.00;;;1.83;;
62707;SDS011;48769;51.624;5.886;2023-07-29T11:47:11;6.32;;;2.20;;
62707;SDS011;48769;51.624;5.886;2023-07-29T11:49:38;2.80;;;2.20;;
62707;SDS011;48769;51.624;5.886;2023-07-29T11:52:06;6.72;;;2.03;;
62707;SDS011;48769;51.624;5.886;2023-07-29T11:54:32;2.22;;;2.03;;
62707;SDS011;48769;51.624;5.886;2023-07-29T11:56:58;2.55;;;1.90;;
62707;SDS011;48769;51.624;5.886;2023-07-29T11:59:23;3.47;;;1.90;;
62707;SDS011;48769;51.624;5.886;2023-07-29T12:01:49;2.50;;;2.03;;
62707;SDS011;48769;51.624;5.886;2023-07-29T12:04:14;4.55;;;2.00;;
62707;SDS011;48769;51.624;5.886;2023-07-29T12:06:44;2.53;;;2.05;;
62707;SDS011;48769;51.624;5.886;2023-07-29T12:09:09;2.35;;;2.05;;
62707;SDS011;48769;51.624;5.886;2023-07-29T12:11:35;2.42;;;2.08;;
62707;SDS011;48769;51.624;5.886;2023-07-29T12:14:00;6.18;;;1.85;;
62707;SDS011;48769;51.624;5.886;2023-07-29T12:16:26;2.08;;;1.88;;
62707;SDS011;48769;51.624;5.886;2023-07-29T12:18:51;2.42;;;2.13;;
62707;SDS011;48769;51.624;5.886;2023-07-29T12:21:17;4.22;;;1.90;;
62707;SDS011;48769;51.624;5.886;2023-07-29T12:23:43;2.72;;;1.70;;
62707;SDS011;48769;51.624;5.886;2023-07-29T12:26:09;1.77;;;1.63;;
62707;SDS011;48769;51.624;5.886;2023-07-29T12:28:34;3.22;;;1.90;;
62707;SDS011;48769;51.624;5.886;2023-07-29T12:30:59;3.40;;;1.60;;
62707;SDS011;48769;51.624;5.886;2023-07-29T12:33:37;1.77;;;1.50;;
62707;SDS011;48769;51.624;5.886;2023-07-29T12:36:04;2.03;;;1.83;;
62707;SDS011;48769;51.624;5.886;2023-07-29T12:38:30;2.50;;;1.85;;
62707;SDS011;48769;51.624;5.886;2023-07-29T12:40:55;2.60;;;1.83;;
62707;SDS011;48769;51.624;5.886;2023-07-29T12:43:21;4.70;;;2.20;;
62707;SDS011;48769;51.624;5.886;2023-07-29T12:45:46;4.97;;;2.50;;
62707;SDS011;48769;51.624;5.886;2023-07-29T12:48:13;7.35;;;2.80;;
62707;SDS011;48769;51.624;5.886;2023-07-29T12:50:40;3.03;;;2.65;;
62707;SDS011;48769;51.624;5.886;2023-07-29T12:53:06;5.05;;;3.13;;
62707;SDS011;48769;51.624;5.886;2023-07-29T12:55:32;13.32;;;3.67;;
62707;SDS011;48769;51.624;5.886;2023-07-29T12:57:57;11.20;;;4.18;;
62707;SDS011;48769;51.624;5.886;2023-07-29T13:00:24;11.57;;;4.47;;
62707;SDS011;48769;51.624;5.886;2023-07-29T13:02:50;7.93;;;3.83;;
62707;SDS011;48769;51.624;5.886;2023-07-29T13:05:15;6.72;;;3.67;;
62707;SDS011;48769;51.624;5.886;2023-07-29T13:07:42;6.10;;;3.42;;
62707;SDS011;48769;51.624;5.886;2023-07-29T13:10:08;6.20;;;2.67;;
62707;SDS011;48769;51.624;5.886;2023-07-29T13:12:34;6.85;;;2.72;;
62707;SDS011;48769;51.624;5.886;2023-07-29T13:15:00;4.75;;;2.97;;
62707;SDS011;48769;51.624;5.886;2023-07-29T13:17:25;6.15;;;3.38;;
62707;SDS011;48769;51.624;5.886;2023-07-29T13:19:50;7.13;;;3.35;;
62707;SDS011;48769;51.624;5.886;2023-07-29T13:22:16;4.55;;;2.42;;
62707;SDS011;48769;51.624;5.886;2023-07-29T13:24:41;2.90;;;1.90;;
62707;SDS011;48769;51.624;5.886;2023-07-29T13:27:07;2.17;;;1.48;;
62707;SDS011;48769;51.624;5.886;2023-07-29T13:29:32;2.28;;;1.65;;
62707;SDS011;48769;51.624;5.886;2023-07-29T13:31:57;3.72;;;1.40;;
62707;SDS011;48769;51.624;5.886;2023-07-29T13:34:23;2.42;;;1.80;;
62707;SDS011;48769;51.624;5.886;2023-07-29T13:36:48;3.35;;;1.77;;
62707;SDS011;48769;51.624;5.886;2023-07-29T13:39:13;1.60;;;1.50;;
62707;SDS011;48769;51.624;5.886;2023-07-29T13:41:40;6.65;;;1.67;;
62707;SDS011;48769;51.624;5.886;2023-07-29T13:44:05;1.90;;;1.30;;
62707;SDS011;48769;51.624;5.886;2023-07-29T13:46:33;2.50;;;1.80;;
62707;SDS011;48769;51.624;5.886;2023-07-29T13:48:58;2.45;;;1.48;;
62707;SDS011;48769;51.624;5.886;2023-07-29T13:51:24;2.70;;;1.60;;
62707;SDS011;48769;51.624;5.886;2023-07-29T13:53:49;2.55;;;1.70;;
62707;SDS011;48769;51.624;5.886;2023-07-29T13:56:14;4.95;;;1.73;;
62707;SDS011;48769;51.624;5.886;2023-07-29T13:58:40;3.65;;;1.98;;
62707;SDS011;48769;51.624;5.886;2023-07-29T14:01:05;2.45;;;1.50;;
62707;SDS011;48769;51.624;5.886;2023-07-29T14:03:31;3.80;;;1.58;;
62707;SDS011;48769;51.624;5.886;2023-07-29T14:05:56;5.13;;;2.70;;
62707;SDS011;48769;51.624;5.886;2023-07-29T14:08:21;2.65;;;2.42;;
62707;SDS011;48769;51.624;5.886;2023-07-29T14:10:48;3.38;;;2.47;;
62707;SDS011;48769;51.624;5.886;2023-07-29T14:13:14;3.47;;;2.45;;
62707;SDS011;48769;51.624;5.886;2023-07-29T14:15:39;6.43;;;2.78;;
62707;SDS011;48769;51.624;5.886;2023-07-29T14:18:05;6.93;;;2.47;;
62707;SDS011;48769;51.624;5.886;2023-07-29T14:20:31;2.72;;;2.30;;
62707;SDS011;48769;51.624;5.886;2023-07-29T14:22:57;2.53;;;2.10;;
62707;SDS011;48769;51.624;5.886;2023-07-29T14:25:22;2.75;;;2.17;;
62707;SDS011;48769;51.624;5.886;2023-07-29T14:27:47;3.67;;;2.33;;
62707;SDS011;48769;51.624;5.886;2023-07-29T14:30:13;3.30;;;2.20;;
62707;SDS011;48769;51.624;5.886;2023-07-29T14:32:38;2.92;;;2.72;;
62707;SDS011;48769;51.624;5.886;2023-07-29T14:35:03;2.55;;;2.25;;
62707;SDS011;48769;51.624;5.886;2023-07-29T14:37:32;3.65;;;2.38;;
62707;SDS011;48769;51.624;5.886;2023-07-29T14:39:57;3.80;;;2.20;;
62707;SDS011;48769;51.624;5.886;2023-07-29T14:42:23;2.30;;;2.10;;
62707;SDS011;48769;51.624;5.886;2023-07-29T14:44:48;2.95;;;2.30;;
62707;SDS011;48769;51.624;5.886;2023-07-29T14:47:14;3.38;;;3.08;;
62707;SDS011;48769;51.624;5.886;2023-07-29T14:49:39;3.03;;;2.03;;
62707;SDS011;48769;51.624;5.886;2023-07-29T14:52:05;6.25;;;2.15;;
62707;SDS011;48769;51.624;5.886;2023-07-29T14:54:31;3.47;;;2.30;;
62707;SDS011;48769;51.624;5.886;2023-07-29T14:56:57;2.25;;;2.05;;